createdAt,value
2019-03-11T00:01:44.532Z,53.60
2019-03-11T00:04:29.272Z,53.50
2019-03-11T00:07:13.671Z,53.50
2019-03-11T00:09:59.354Z,53.30
2019-03-11T00:12:44.082Z,53.20
2019-03-11T00:15:29.482Z,52.90
2019-03-11T00:18:23.348Z,52.90
2019-03-11T00:21:17.391Z,52.80
2019-03-11T00:24:01.895Z,53.00
2019-03-11T00:26:46.707Z,53.00
2019-03-11T00:29:31.980Z,52.90
2019-03-11T00:32:26.164Z,53.00
2019-03-11T00:35:19.940Z,52.40
2019-03-11T00:38:04.511Z,52.50
2019-03-11T00:40:49.920Z,52.60
2019-03-11T00:43:44.012Z,52.40
2019-03-11T00:46:39.764Z,52.50
2019-03-11T00:49:24.799Z,52.50
2019-03-11T00:52:18.679Z,52.50
2019-03-11T00:55:03.591Z,52.50
2019-03-11T00:57:48.107Z,52.30
2019-03-11T01:00:33.042Z,52.40
2019-03-11T01:03:17.959Z,52.80
2019-03-11T01:06:03.059Z,52.10
2019-03-11T01:08:57.261Z,52.00
2019-03-11T01:11:51.092Z,52.10
2019-03-11T01:14:36.138Z,52.70
2019-03-11T01:17:29.889Z,52.70
2019-03-11T01:20:14.583Z,52.00
2019-03-11T01:22:58.912Z,52.20
2019-03-11T01:25:43.667Z,52.30
2019-03-11T01:28:28.632Z,52.40
2019-03-11T01:31:13.444Z,52.60
2019-03-11T01:33:57.920Z,52.70
2019-03-11T01:36:42.459Z,52.70
2019-03-11T01:39:35.988Z,52.50
2019-03-11T01:42:20.543Z,52.70
2019-03-11T01:45:05.344Z,52.60
2019-03-11T01:47:50.020Z,53.00
2019-03-11T01:50:34.312Z,52.90
2019-03-11T01:53:27.731Z,52.80
2019-03-11T01:56:12.401Z,53.20
2019-03-11T01:58:57.264Z,53.00
2019-03-11T02:01:40.380Z,53.10
2019-03-11T02:04:32.203Z,53.50
2019-03-11T02:07:25.815Z,54.00
2019-03-11T02:10:10.331Z,53.80
2019-03-11T02:12:55.080Z,53.70
2019-03-11T02:15:39.771Z,53.60
2019-03-11T02:18:24.435Z,53.50
2019-03-11T02:21:09.240Z,53.40
2019-03-11T02:23:54.124Z,53.50
2019-03-11T02:26:38.703Z,53.80
2019-03-11T02:29:23.368Z,53.80
2019-03-11T02:32:16.572Z,54.00
2019-03-11T02:35:01.605Z,54.50
2019-03-11T02:37:55.417Z,54.80
2019-03-11T02:40:39.921Z,55.10
2019-03-11T02:43:24.628Z,55.40
2019-03-11T02:46:09.323Z,55.80
2019-03-11T02:48:54.173Z,56.30
2019-03-11T02:51:39.136Z,55.40
2019-03-11T02:54:23.809Z,55.60
2019-03-11T02:57:08.307Z,55.50
2019-03-11T03:00:02.004Z,55.90
2019-03-11T03:06:20.585Z,56.10
2019-03-11T03:09:05.412Z,56.40
2019-03-11T03:11:50.428Z,56.20
2019-03-11T03:14:34.916Z,56.20
2019-03-11T03:17:19.501Z,55.80
2019-03-11T03:20:04.354Z,55.70
2019-03-11T03:22:48.956Z,55.60
2019-03-11T03:25:35.063Z,55.80
2019-03-11T03:28:28.593Z,55.70
2019-03-11T03:31:13.157Z,56.00
2019-03-11T03:33:57.874Z,56.10
2019-03-11T03:36:42.432Z,56.40
2019-03-11T03:39:27.120Z,56.40
2019-03-11T03:42:13.609Z,56.70
2019-03-11T03:44:58.627Z,56.80
2019-03-11T03:47:42.973Z,56.90
2019-03-11T03:50:36.751Z,57.00
2019-03-11T03:53:30.622Z,57.20
2019-03-11T03:56:15.449Z,57.90
2019-03-11T03:58:59.720Z,59.60
2019-03-11T04:01:44.262Z,61.10
2019-03-11T04:04:28.949Z,62.90
2019-03-11T04:07:13.357Z,65.10
2019-03-11T04:10:06.418Z,66.20
2019-03-11T04:12:51.261Z,67.00
2019-03-11T04:15:35.556Z,67.40
2019-03-11T04:18:28.857Z,66.80
2019-03-11T04:21:13.912Z,67.70
2019-03-11T04:23:58.108Z,67.90
2019-03-11T04:26:42.846Z,67.90
2019-03-11T04:29:27.425Z,68.80
2019-03-11T04:32:20.696Z,69.00
2019-03-11T04:35:05.249Z,69.60
2019-03-11T04:37:49.717Z,71.00
2019-03-11T04:40:34.155Z,70.70
2019-03-11T04:43:27.669Z,71.60
2019-03-11T04:46:12.628Z,72.80
2019-03-11T04:48:56.960Z,73.80
2019-03-11T04:51:51.408Z,74.80
2019-03-11T04:54:36.031Z,75.20
2019-03-11T04:57:20.520Z,74.60
2019-03-11T05:00:05.210Z,74.90
2019-03-11T05:02:50.235Z,75.10
2019-03-11T05:05:34.944Z,74.30
2019-03-11T05:08:19.340Z,74.20
2019-03-11T05:11:12.723Z,73.10
2019-03-11T05:13:57.420Z,73.10
2019-03-11T05:16:41.992Z,73.10
2019-03-11T05:19:27.000Z,72.30
2019-03-11T05:22:11.509Z,72.80
2019-03-11T05:24:56.348Z,72.80
2019-03-11T05:27:41.027Z,72.70
2019-03-11T05:30:25.527Z,72.50
2019-03-11T05:33:18.562Z,73.00
2019-03-11T05:36:03.242Z,73.40
2019-03-11T05:38:47.478Z,74.00
2019-03-11T05:41:40.777Z,74.60
2019-03-11T05:44:25.343Z,74.70
2019-03-11T05:47:09.596Z,74.20
2019-03-11T05:50:03.268Z,73.10
2019-03-11T05:52:48.120Z,70.80
2019-03-11T05:55:32.668Z,69.10
2019-03-11T05:58:17.433Z,66.60
2019-03-11T06:01:01.963Z,65.50
2019-03-11T06:03:46.334Z,65.40
2019-03-11T06:06:39.447Z,65.10
2019-03-11T06:09:23.979Z,64.20
2019-03-11T06:12:08.658Z,64.60
2019-03-11T06:14:53.524Z,64.70
2019-03-11T06:17:38.567Z,65.10
2019-03-11T06:20:45.028Z,65.60
2019-03-11T06:23:46.487Z,65.50
2019-03-11T06:26:31.914Z,66.30
2019-03-11T06:29:30.411Z,66.70
2019-03-11T06:32:21.268Z,67.10
2019-03-11T06:35:06.448Z,67.10
2019-03-11T06:38:00.160Z,66.90
2019-03-11T06:40:46.027Z,66.50
2019-03-11T06:43:31.000Z,66.80
2019-03-11T06:46:15.687Z,67.10
2019-03-11T06:49:00.396Z,66.40
2019-03-11T06:51:45.417Z,66.50
2019-03-11T06:54:29.761Z,66.40
2019-03-11T06:57:14.728Z,65.90
2019-03-11T06:59:59.220Z,65.70
2019-03-11T07:02:44.080Z,65.90
2019-03-11T07:05:28.577Z,65.90
2019-03-11T07:08:22.188Z,65.40
2019-03-11T07:11:07.145Z,65.20
2019-03-11T07:13:51.648Z,64.90
2019-03-11T07:16:36.299Z,64.00
2019-03-11T07:19:21.187Z,63.80
2019-03-11T07:22:05.720Z,63.20
2019-03-11T07:24:50.427Z,62.30
2019-03-11T07:27:35.192Z,63.00
2019-03-11T07:30:19.839Z,61.80
2019-03-11T07:33:06.928Z,61.20
2019-03-11T07:35:51.197Z,60.60
2019-03-11T07:38:35.944Z,59.90
2019-03-11T07:41:20.881Z,60.10
2019-03-11T07:44:05.289Z,59.80
2019-03-11T07:46:58.492Z,60.10
2019-03-11T07:49:43.637Z,60.30
2019-03-11T07:52:28.484Z,62.50
2019-03-11T07:55:13.085Z,69.20
2019-03-11T07:57:57.677Z,70.50
2019-03-11T08:00:52.993Z,71.50
2019-03-11T08:03:28.219Z,71.00
2019-03-11T08:06:21.243Z,71.20
2019-03-11T08:09:05.872Z,70.90
2019-03-11T08:11:51.168Z,70.70
2019-03-11T08:14:35.720Z,72.20
2019-03-11T08:17:20.628Z,74.00
2019-03-11T08:20:05.357Z,75.80
2019-03-11T08:22:50.003Z,78.00
2019-03-11T08:25:35.109Z,79.40
2019-03-11T08:28:21.264Z,79.80
2019-03-11T08:31:06.295Z,79.40
2019-03-11T08:33:51.096Z,78.00
2019-03-11T08:36:35.670Z,77.90
2019-03-11T08:39:20.272Z,77.10
2019-03-11T08:42:05.133Z,76.00
2019-03-11T08:44:50.223Z,77.20
2019-03-11T08:47:34.711Z,76.80
2019-03-11T08:50:18.930Z,76.40
2019-03-11T08:53:12.159Z,72.50
2019-03-11T08:55:56.471Z,70.80
2019-03-11T08:58:49.862Z,69.10
2019-03-11T09:01:34.484Z,65.80
2019-03-11T09:04:19.257Z,65.30
2019-03-11T09:07:03.778Z,64.40
2019-03-11T09:09:48.832Z,63.90
2019-03-11T09:12:33.596Z,62.90
2019-03-11T09:15:18.212Z,62.00
2019-03-11T09:18:03.147Z,62.50
2019-03-11T09:20:47.829Z,60.20
2019-03-11T09:23:32.971Z,60.60
2019-03-11T09:26:17.608Z,61.40
2019-03-11T09:29:02.272Z,59.50
2019-03-11T09:31:47.056Z,59.00
2019-03-11T09:34:31.927Z,58.80
2019-03-11T09:37:16.169Z,58.80
2019-03-11T09:40:09.807Z,58.80
2019-03-11T09:42:54.431Z,58.10
2019-03-11T09:45:39.300Z,57.20
2019-03-11T09:48:23.396Z,56.80
2019-03-11T09:51:08.177Z,55.60
2019-03-11T09:53:53.300Z,56.30
2019-03-11T09:56:48.081Z,56.40
2019-03-11T09:59:41.389Z,56.50
2019-03-11T10:02:26.156Z,56.50
2019-03-11T10:05:10.783Z,55.40
2019-03-11T10:07:55.654Z,55.10
2019-03-11T10:10:40.612Z,55.30
2019-03-11T10:13:27.527Z,53.70
2019-03-11T10:16:11.139Z,53.80
2019-03-11T10:19:04.627Z,52.90
2019-03-11T10:21:49.561Z,53.70
2019-03-11T10:24:33.946Z,53.90
2019-03-11T10:27:18.638Z,51.50
2019-03-11T10:30:01.460Z,51.20
2019-03-11T10:32:46.776Z,50.90
2019-03-11T10:35:32.778Z,51.30
2019-03-11T10:38:18.059Z,52.30
2019-03-11T10:41:02.832Z,52.30
2019-03-11T10:43:47.305Z,52.10
2019-03-11T10:46:32.148Z,52.60
2019-03-11T10:49:16.829Z,53.10
2019-03-11T10:52:01.143Z,53.10
2019-03-11T10:54:56.576Z,52.00
2019-03-11T10:57:41.188Z,51.00
2019-03-11T11:00:26.988Z,51.40
2019-03-11T11:03:12.152Z,52.00
2019-03-11T11:05:56.868Z,52.80
2019-03-11T11:08:41.916Z,51.70
2019-03-11T11:11:26.404Z,51.60
2019-03-11T11:14:10.952Z,51.10
2019-03-11T11:16:55.759Z,52.00
2019-03-11T11:19:40.720Z,52.50
2019-03-11T11:22:25.607Z,53.10
2019-03-11T11:25:10.239Z,52.10
2019-03-11T11:27:54.843Z,53.00
2019-03-11T11:30:39.992Z,55.30
2019-03-11T11:33:24.508Z,56.80
2019-03-11T11:36:08.788Z,56.60
2019-03-11T11:39:05.108Z,55.70
2019-03-11T11:42:19.659Z,54.10
2019-03-11T11:45:04.892Z,53.00
2019-03-11T11:47:49.776Z,51.30
2019-03-11T11:50:43.783Z,50.20
2019-03-11T11:53:28.520Z,50.20
2019-03-11T11:56:13.044Z,49.20
2019-03-11T11:58:58.336Z,47.90
2019-03-11T12:02:02.943Z,48.40
2019-03-11T12:04:47.627Z,47.90
2019-03-11T12:07:32.458Z,47.40
2019-03-11T12:10:17.153Z,47.60
2019-03-11T12:13:02.060Z,48.40
2019-03-11T12:15:47.283Z,50.50
2019-03-11T12:18:32.606Z,51.20
2019-03-11T12:21:25.860Z,50.90
2019-03-11T12:24:10.467Z,50.50
2019-03-11T12:26:55.168Z,50.60
2019-03-11T12:29:40.049Z,50.20
2019-03-11T12:32:24.416Z,49.70
2019-03-11T12:35:09.048Z,49.00
2019-03-11T12:38:02.560Z,48.20
2019-03-11T12:40:47.689Z,47.70
2019-03-11T12:43:41.604Z,47.10
2019-03-11T12:46:26.296Z,47.10
2019-03-11T12:49:10.919Z,46.00
2019-03-11T12:51:55.736Z,45.40
2019-03-11T12:54:40.643Z,44.70
2019-03-11T12:57:25.935Z,44.30
2019-03-11T13:00:19.262Z,44.10
2019-03-11T13:03:04.119Z,43.50
2019-03-11T13:05:49.146Z,43.70
2019-03-11T13:08:34.116Z,43.90
2019-03-11T13:11:18.910Z,43.80
2019-03-11T13:14:03.779Z,44.50
2019-03-11T13:17:01.010Z,43.30
2019-03-11T13:19:54.746Z,42.20
2019-03-11T13:22:39.461Z,40.70
2019-03-11T13:25:24.204Z,40.20
2019-03-11T13:28:09.364Z,41.00
2019-03-11T13:30:54.420Z,40.30
2019-03-11T13:33:48.264Z,41.20
2019-03-11T13:36:33.104Z,40.30
2019-03-11T13:39:17.491Z,40.20
2019-03-11T13:42:01.597Z,40.30
2019-03-11T13:44:47.563Z,41.30
2019-03-11T13:47:41.767Z,41.90
2019-03-11T13:50:35.467Z,41.20
2019-03-11T13:53:20.651Z,39.80
2019-03-11T13:56:05.605Z,40.70
2019-03-11T13:58:59.131Z,41.80
2019-03-11T14:01:43.931Z,40.20
2019-03-11T14:04:28.771Z,40.30
2019-03-11T14:07:13.424Z,41.70
2019-03-11T14:09:58.700Z,42.40
2019-03-11T14:12:42.875Z,42.70
2019-03-11T14:15:28.010Z,43.70
2019-03-11T14:18:12.612Z,43.60
2019-03-11T14:20:57.269Z,43.90
2019-03-11T14:23:41.996Z,44.60
2019-03-11T14:26:26.180Z,45.20
2019-03-11T14:29:19.348Z,45.60
2019-03-11T14:32:05.129Z,45.80
2019-03-11T14:34:58.944Z,44.90
2019-03-11T14:37:43.221Z,43.20
2019-03-11T14:40:27.869Z,43.90
2019-03-11T14:43:12.292Z,44.20
2019-03-11T14:46:05.573Z,44.80
2019-03-11T14:48:50.508Z,45.90
2019-03-11T14:51:35.312Z,46.30
2019-03-11T14:54:19.763Z,46.90
2019-03-11T14:57:04.161Z,46.80
2019-03-11T14:59:49.804Z,47.40
2019-03-11T15:02:34.617Z,48.40
2019-03-11T15:05:18.964Z,49.50
2019-03-11T15:08:03.340Z,49.80
2019-03-11T15:10:47.845Z,50.00
2019-03-11T15:13:41.024Z,49.00
2019-03-11T15:16:25.637Z,48.60
2019-03-11T15:19:10.384Z,48.80
2019-03-11T15:22:04.777Z,47.60
2019-03-11T15:24:49.433Z,48.30
2019-03-11T15:27:34.055Z,47.40
2019-03-11T15:30:18.575Z,47.10
2019-03-11T15:33:12.006Z,46.80
2019-03-11T15:35:56.404Z,46.90
2019-03-11T15:38:41.547Z,47.20
2019-03-11T15:41:26.228Z,47.30
2019-03-11T15:44:11.302Z,47.40
2019-03-11T15:46:56.718Z,47.30
2019-03-11T15:49:50.096Z,47.60
2019-03-11T15:52:34.216Z,47.70
2019-03-11T15:55:27.612Z,48.40
2019-03-11T15:58:11.888Z,51.90
2019-03-11T16:00:57.087Z,57.50
2019-03-11T16:03:44.272Z,65.20
2019-03-11T16:06:37.596Z,70.40
2019-03-11T16:09:22.365Z,72.80
2019-03-11T16:12:06.984Z,75.90
2019-03-11T16:14:51.936Z,76.00
2019-03-11T16:17:36.140Z,75.60
2019-03-11T16:20:20.831Z,75.70
2019-03-11T16:23:13.868Z,76.00
2019-03-11T16:25:58.329Z,75.20
2019-03-11T16:28:47.954Z,74.30
2019-03-11T16:31:29.608Z,74.00
2019-03-11T16:34:14.412Z,75.90
2019-03-11T16:36:59.571Z,75.70
2019-03-11T16:39:44.349Z,74.50
2019-03-11T16:42:29.240Z,73.50
2019-03-11T16:45:13.939Z,72.90
2019-03-11T16:47:58.300Z,72.30
2019-03-11T16:50:43.472Z,69.90
2019-03-11T16:53:28.360Z,69.70
2019-03-11T16:56:15.160Z,69.60
2019-03-11T16:58:59.768Z,66.40
2019-03-11T17:01:43.876Z,65.70
2019-03-11T17:04:27.924Z,64.50
2019-03-11T17:07:12.252Z,62.80
2019-03-11T17:09:56.861Z,61.20
2019-03-11T17:12:41.300Z,61.10
2019-03-11T17:15:34.668Z,59.20
2019-03-11T17:18:19.321Z,59.40
2019-03-11T17:21:03.964Z,58.50
2019-03-11T17:23:37.132Z,58.30
2019-03-11T17:26:30.404Z,58.00
2019-03-11T17:29:15.580Z,58.00
2019-03-11T17:32:09.263Z,57.90
2019-03-11T17:34:54.380Z,57.90
2019-03-11T17:37:38.759Z,57.50
2019-03-11T17:40:23.907Z,57.80
2019-03-11T17:43:08.401Z,57.20
2019-03-11T17:45:53.015Z,57.70
2019-03-11T17:48:37.744Z,57.20
2019-03-11T17:51:32.348Z,56.90
2019-03-11T17:54:18.190Z,57.20
2019-03-11T17:57:03.341Z,57.10
2019-03-11T17:59:48.567Z,56.70
2019-03-11T18:02:42.699Z,56.10
2019-03-11T18:05:27.628Z,55.70
2019-03-11T18:08:21.236Z,56.40
2019-03-11T18:11:15.696Z,56.40
2019-03-11T18:14:00.320Z,56.30
2019-03-11T18:16:45.249Z,56.60
2019-03-11T18:19:42.441Z,56.90
2019-03-11T18:22:26.824Z,56.20
2019-03-11T18:25:11.513Z,57.20
2019-03-11T18:27:56.283Z,56.70
2019-03-11T18:30:41.030Z,56.70
2019-03-11T18:33:25.689Z,56.80
2019-03-11T18:36:10.453Z,56.40
2019-03-11T18:39:04.297Z,56.10
2019-03-11T18:41:59.760Z,55.90
2019-03-11T18:44:54.046Z,55.80
2019-03-11T18:47:48.044Z,56.00
2019-03-11T18:50:42.073Z,55.90
2019-03-11T18:53:26.996Z,55.70
2019-03-11T18:56:20.579Z,55.80
2019-03-11T18:59:05.605Z,56.60
2019-03-11T19:01:50.702Z,56.00
2019-03-11T19:04:44.420Z,56.20
2019-03-11T19:07:29.064Z,55.90
2019-03-11T19:10:13.786Z,56.10
2019-03-11T19:12:58.493Z,55.80
2019-03-11T19:15:43.107Z,55.80
2019-03-11T19:18:28.022Z,55.90
2019-03-11T19:21:12.500Z,55.60
2019-03-11T19:24:05.832Z,55.30
2019-03-11T19:26:50.879Z,55.40
2019-03-11T19:29:35.610Z,55.20
2019-03-11T19:32:20.252Z,55.10
2019-03-11T19:35:05.341Z,54.90
2019-03-11T19:37:50.837Z,55.30
2019-03-11T19:40:36.057Z,55.60
2019-03-11T19:43:20.645Z,55.50
2019-03-11T19:46:05.616Z,55.30
2019-03-11T19:48:50.646Z,55.20
2019-03-11T19:51:35.124Z,55.20
2019-03-11T19:54:19.775Z,55.20
2019-03-11T19:57:04.350Z,54.80
2019-03-11T19:59:49.169Z,55.10
2019-03-11T20:02:33.934Z,54.90
2019-03-11T20:05:18.079Z,55.30
2019-03-11T20:08:11.782Z,55.20
2019-03-11T20:10:57.328Z,55.50
2019-03-11T20:13:50.709Z,55.10
2019-03-11T20:16:35.261Z,55.30
2019-03-11T20:19:19.467Z,55.30
2019-03-11T20:22:12.783Z,55.00
2019-03-11T20:24:57.569Z,55.10
2019-03-11T20:27:42.392Z,55.10
2019-03-11T20:30:26.971Z,55.00
2019-03-11T20:33:11.186Z,55.10
2019-03-11T20:36:04.754Z,54.90
2019-03-11T20:38:49.941Z,55.60
2019-03-11T20:41:44.453Z,55.30
2019-03-11T20:44:38.586Z,55.30
2019-03-11T20:47:32.708Z,55.50
2019-03-11T20:50:17.568Z,55.30
2019-03-11T20:53:02.040Z,55.30
2019-03-11T20:55:56.719Z,55.30
2019-03-11T20:58:41.235Z,55.50
2019-03-11T21:01:26.104Z,55.60
2019-03-11T21:04:11.161Z,55.90
2019-03-11T21:06:55.876Z,55.30
2019-03-11T21:09:40.745Z,55.00
2019-03-11T21:12:25.269Z,55.40
2019-03-11T21:15:10.021Z,55.90
2019-03-11T21:17:54.489Z,56.00
2019-03-11T21:20:39.591Z,55.30
2019-03-11T21:23:26.181Z,55.40
2019-03-11T21:26:10.940Z,55.70
2019-03-11T21:28:56.140Z,55.60
2019-03-11T21:31:40.559Z,55.20
2019-03-11T21:34:25.608Z,55.20
2019-03-11T21:37:10.424Z,55.10
2019-03-11T21:39:54.927Z,55.10
2019-03-11T21:42:39.411Z,55.40
2019-03-11T21:45:33.440Z,55.50
2019-03-11T21:48:10.250Z,55.60
2019-03-11T21:51:03.334Z,56.00
2019-03-11T21:53:48.455Z,56.00
2019-03-11T21:56:32.490Z,56.10
2019-03-11T21:59:17.320Z,56.60
2019-03-11T22:02:01.902Z,56.70
2019-03-11T22:04:55.148Z,56.40
2019-03-11T22:07:40.167Z,56.50
2019-03-11T22:10:24.522Z,56.40
2019-03-11T22:13:09.079Z,56.70
2019-03-11T22:15:53.324Z,57.00
2019-03-11T22:18:47.080Z,57.20
2019-03-11T22:21:31.588Z,57.50
2019-03-11T22:24:16.188Z,57.60
2019-03-11T22:27:00.371Z,57.90
2019-03-11T22:29:54.284Z,57.90
2019-03-11T22:32:47.892Z,58.00
2019-03-11T22:35:32.313Z,58.10
2019-03-11T22:38:17.219Z,58.70
2019-03-11T22:41:02.319Z,58.80
2019-03-11T22:43:46.855Z,59.00
2019-03-11T22:46:31.483Z,59.10
2019-03-11T22:49:16.303Z,59.10
2019-03-11T22:52:00.987Z,59.20
2019-03-11T22:54:45.525Z,59.30
2019-03-11T22:57:38.884Z,59.30
2019-03-11T23:00:24.694Z,59.70
2019-03-11T23:03:11.034Z,59.80
2019-03-11T23:05:58.016Z,60.10
2019-03-11T23:08:50.352Z,60.50
2019-03-11T23:11:35.159Z,60.60
2019-03-11T23:14:19.368Z,60.90
2019-03-11T23:17:15.480Z,61.10
2019-03-11T23:20:00.365Z,61.10
2019-03-11T23:22:44.680Z,61.20
2019-03-11T23:25:29.216Z,61.40
2019-03-11T23:28:14.088Z,61.80
2019-03-11T23:30:58.992Z,61.90
2019-03-11T23:33:44.154Z,61.80
2019-03-11T23:36:28.853Z,61.40
2019-03-11T23:39:13.645Z,61.50
2019-03-11T23:41:58.638Z,61.00
2019-03-11T23:44:43.820Z,61.30
2019-03-11T23:47:37.535Z,61.30
2019-03-11T23:50:22.060Z,61.20
2019-03-11T23:53:06.705Z,61.30
2019-03-11T23:55:51.490Z,61.20
2019-03-11T23:58:45.744Z,61.40
